Time;durP1;ratioP1;P1;durP2;ratioP2;P2;SDS_P1;SDS_P2;PMS_P1;PMS_P2;Temp;Humidity;BMP_temperature;BMP_pressure;BME280_temperature;BME280_humidity;BME280_pressure;Samples;Min_cycle;Max_cycle;Signal;HPM_P1;HPM_P2
2022/05/21 00:00:06;;;;;;;13.90;8.52;;;;;;;-145.50;100.00;65435.88;4924102;29;20459;-66
2022/05/21 00:02:32;;;;;;;19.10;10.07;;;;;;;-145.50;100.00;65435.88;4913545;28;20653;-66
2022/05/21 00:04:59;;;;;;;14.85;9.38;;;;;;;-145.50;100.00;65435.88;4903596;29;20055;-67
2022/05/21 00:07:25;;;;;;;15.40;9.63;;;;;;;-145.50;100.00;65435.88;4923392;29;20138;-66
2022/05/21 00:09:52;;;;;;;14.43;8.77;;;;;;;-145.50;100.00;65435.88;4917664;28;20174;-68
2022/05/21 00:12:19;;;;;;;17.88;9.70;;;;;;;-145.50;100.00;65435.88;4924282;29;20052;-66
2022/05/21 00:14:45;;;;;;;16.83;8.95;;;;;;;-145.50;100.00;65435.88;4915792;28;20055;-67
2022/05/21 00:17:12;;;;;;;14.88;9.75;;;;;;;-145.50;100.00;65435.88;4919755;29;20158;-66
2022/05/21 00:19:38;;;;;;;15.77;8.65;;;;;;;-145.50;100.00;65435.88;4915026;28;20055;-68
2022/05/21 00:22:05;;;;;;;14.70;9.55;;;;;;;-145.50;100.00;65435.88;4921435;29;20147;-69
2022/05/21 00:24:31;;;;;;;16.55;9.88;;;;;;;-145.50;100.00;65435.88;4933467;29;20121;-67
2022/05/21 00:26:59;;;;;;;15.98;10.25;;;;;;;-145.50;100.00;65435.88;4918434;28;20827;-68
2022/05/21 00:29:27;;;;;;;16.13;10.57;;;;;;;-145.50;100.00;65435.88;4923653;29;20512;-68
2022/05/21 00:31:54;;;;;;;15.52;11.00;;;;;;;-145.50;100.00;65435.88;4912347;28;20069;-67
2022/05/21 00:34:21;;;;;;;18.20;11.00;;;;;;;-145.50;100.00;65435.88;4920518;29;20073;-67
2022/05/21 00:36:48;;;;;;;19.00;11.65;;;;;;;-145.50;100.00;65435.88;4918161;28;20155;-67
2022/05/21 00:39:15;;;;;;;17.67;11.70;;;;;;;-145.50;100.00;65435.88;4922677;29;20186;-68
2022/05/21 00:41:42;;;;;;;15.75;11.55;;;;;;;-145.50;100.00;65435.88;4921738;29;20548;-67
2022/05/21 00:44:09;;;;;;;18.55;12.35;;;;;;;-145.50;100.00;65435.88;4908868;29;20789;-67
2022/05/21 00:46:38;;;;;;;18.48;12.80;;;;;;;-145.50;100.00;65435.88;4924781;29;20138;-67
2022/05/21 00:49:14;;;;;;;18.75;12.45;;;;;;;-145.50;100.00;65435.88;4933217;28;20087;-67
2022/05/21 00:51:47;;;;;;;18.52;12.40;;;;;;;-145.50;100.00;65435.88;4923745;29;20059;-67
2022/05/21 00:54:16;;;;;;;18.30;13.00;;;;;;;-145.50;100.00;65435.88;4919724;29;20055;-69
2022/05/21 00:56:50;;;;;;;19.98;11.98;;;;;;;-145.50;100.00;65435.88;4922916;29;20061;-67
2022/05/21 01:02:07;;;;;;;18.17;12.32;;;;;;;-145.50;100.00;65435.88;4917390;29;20065;-66
2022/05/21 01:04:34;;;;;;;21.08;12.35;;;;;;;-145.50;100.00;65435.88;4923875;29;20131;-66
2022/05/21 01:07:02;;;;;;;16.42;11.60;;;;;;;-145.50;100.00;65435.88;4927165;28;20507;-66
2022/05/21 01:09:30;;;;;;;16.45;11.15;;;;;;;-145.50;100.00;65435.88;4925377;29;20111;-67
2022/05/21 01:11:57;;;;;;;17.33;12.13;;;;;;;-145.50;100.00;65435.88;4917796;28;20058;-66
2022/05/21 01:14:24;;;;;;;17.88;12.13;;;;;;;-145.50;100.00;65435.88;4917862;29;20572;-66
2022/05/21 01:16:50;;;;;;;18.63;11.45;;;;;;;-145.50;100.00;65435.88;4917358;28;20081;-67
2022/05/21 01:19:18;;;;;;;20.35;11.25;;;;;;;-145.50;100.00;65435.88;4924239;29;20055;-66
2022/05/21 01:21:44;;;;;;;17.15;11.10;;;;;;;-145.50;100.00;65435.88;4923078;29;20052;-67
2022/05/21 01:24:12;;;;;;;16.67;11.25;;;;;;;-145.50;100.00;65435.88;4918496;28;20092;-67
2022/05/21 01:26:40;;;;;;;19.60;10.85;;;;;;;-145.50;100.00;65435.88;4918948;29;20186;-67
2022/05/21 01:29:18;;;;;;;16.80;11.50;;;;;;;-145.50;100.00;65435.88;4913561;29;20166;-67
2022/05/21 01:31:52;;;;;;;16.50;10.77;;;;;;;-145.50;100.00;65435.88;4923067;29;20134;-67
2022/05/21 01:34:20;;;;;;;17.08;10.45;;;;;;;-145.50;100.00;65435.88;4917379;28;20126;-67
2022/05/21 01:36:47;;;;;;;18.13;12.25;;;;;;;-145.50;100.00;65435.88;4922596;29;20051;-66
2022/05/21 01:39:14;;;;;;;21.33;11.55;;;;;;;-145.50;100.00;65435.88;4923982;29;20151;-67
2022/05/21 01:41:42;;;;;;;17.42;11.85;;;;;;;-145.50;100.00;65435.88;4911755;28;20617;-67
2022/05/21 01:46:54;;;;;;;18.25;10.73;;;;;;;-145.50;100.00;65435.88;4910163;28;20051;-67
2022/05/21 01:49:20;;;;;;;17.13;10.30;;;;;;;-145.50;100.00;65435.88;4923613;29;20415;-67
2022/05/21 01:51:47;;;;;;;19.55;10.60;;;;;;;-145.50;100.00;65435.88;4928454;28;20077;-65
2022/05/21 01:54:13;;;;;;;17.63;11.30;;;;;;;-145.50;100.00;65435.88;4925143;29;20059;-67
2022/05/21 01:56:40;;;;;;;23.77;11.00;;;;;;;-145.50;100.00;65435.88;4921938;29;20062;-67
2022/05/21 01:59:06;;;;;;;17.23;10.32;;;;;;;-145.50;100.00;65435.88;4917381;28;20060;-64
2022/05/21 02:01:33;;;;;;;18.10;10.80;;;;;;;-145.50;100.00;65435.88;4924370;29;20134;-67
2022/05/21 02:03:59;;;;;;;19.15;10.98;;;;;;;-145.50;100.00;65435.88;4921333;28;20544;-67
2022/05/21 02:06:26;;;;;;;17.02;10.07;;;;;;;-145.50;100.00;65435.88;4921208;29;20086;-67
2022/05/21 02:08:53;;;;;;;19.85;11.35;;;;;;;-145.50;100.00;65435.88;4920837;28;20131;-67
2022/05/21 02:11:20;;;;;;;16.90;11.00;;;;;;;-145.50;100.00;65435.88;4927129;29;20886;-66
2022/05/21 02:13:46;;;;;;;17.48;10.70;;;;;;;-145.50;100.00;65435.88;4923312;28;20528;-67
2022/05/21 02:16:12;;;;;;;14.80;11.10;;;;;;;-145.50;100.00;65435.88;4924218;29;20437;-65
2022/05/21 02:18:39;;;;;;;26.52;11.98;;;;;;;-145.50;100.00;65435.88;4921383;29;20094;-66
2022/05/21 02:21:07;;;;;;;18.77;11.35;;;;;;;-145.50;100.00;65435.88;4917398;28;20139;-66
2022/05/21 02:23:34;;;;;;;18.83;10.70;;;;;;;-145.50;100.00;65435.88;4927630;29;20058;-69
2022/05/21 02:26:01;;;;;;;24.02;11.20;;;;;;;-145.50;100.00;65435.88;4919990;28;20062;-67
2022/05/21 02:28:29;;;;;;;16.77;10.52;;;;;;;-145.50;100.00;65435.88;4926598;29;20441;-68
2022/05/21 02:30:55;;;;;;;25.87;10.67;;;;;;;-145.50;100.00;65435.88;4922576;28;20143;-69
2022/05/21 02:33:22;;;;;;;18.10;11.18;;;;;;;-145.50;100.00;65435.88;4917635;29;20299;-67
2022/05/21 02:35:48;;;;;;;19.92;11.48;;;;;;;-145.50;100.00;65435.88;4930342;29;20094;-68
2022/05/21 02:41:00;;;;;;;19.20;11.05;;;;;;;-145.50;100.00;65435.88;4930558;29;20062;-66
2022/05/21 02:43:29;;;;;;;16.85;11.20;;;;;;;-145.50;100.00;65435.88;4930330;28;20062;-67
2022/05/21 02:45:56;;;;;;;18.15;10.93;;;;;;;-145.50;100.00;65435.88;4928437;29;20048;-68
2022/05/21 02:48:27;;;;;;;18.02;10.77;;;;;;;-145.50;100.00;65435.88;4916869;28;20051;-68
2022/05/21 02:50:54;;;;;;;16.88;9.70;;;;;;;-145.50;100.00;65435.88;4924568;29;20143;-67
2022/05/21 02:53:21;;;;;;;19.42;10.98;;;;;;;-145.50;100.00;65435.88;4927280;29;20068;-67
2022/05/21 02:55:48;;;;;;;16.55;10.13;;;;;;;-145.50;100.00;65435.88;4920280;28;20052;-67
2022/05/21 02:58:16;;;;;;;17.80;11.50;;;;;;;-145.50;100.00;65435.88;4930213;29;20048;-67
2022/05/21 03:00:43;;;;;;;20.23;10.65;;;;;;;-145.50;100.00;65435.88;4912143;28;20047;-67
2022/05/21 03:03:11;;;;;;;20.02;10.65;;;;;;;-145.50;100.00;65435.88;4926220;29;20059;-67
2022/05/21 03:05:37;;;;;;;24.35;11.23;;;;;;;-145.50;100.00;65435.88;4923779;28;20131;-66
2022/05/21 03:10:54;;;;;;;20.20;11.13;;;;;;;-145.50;100.00;65435.88;4925609;29;20162;-67
2022/05/21 03:13:22;;;;;;;22.90;12.63;;;;;;;-145.50;100.00;65435.88;4921870;29;20768;-67
2022/05/21 03:15:49;;;;;;;19.88;11.02;;;;;;;-145.50;100.00;65435.88;4943204;29;20130;-67
2022/05/21 03:18:16;;;;;;;20.33;11.90;;;;;;;-145.50;100.00;65435.88;4927347;28;20139;-67
2022/05/21 03:20:42;;;;;;;20.08;10.75;;;;;;;-145.50;100.00;65435.88;4925624;29;20091;-68
2022/05/21 03:23:10;;;;;;;15.80;10.48;;;;;;;-145.50;100.00;65435.88;4917103;28;20051;-67
2022/05/21 03:25:37;;;;;;;16.50;10.40;;;;;;;-145.50;100.00;65435.88;4919696;29;20091;-67
2022/05/21 03:28:04;;;;;;;23.35;11.48;;;;;;;-145.50;100.00;65435.88;4921892;28;20564;-68
2022/05/21 03:30:32;;;;;;;22.40;10.95;;;;;;;-145.50;100.00;65435.88;4921647;29;20497;-67
2022/05/21 03:32:59;;;;;;;20.80;10.95;;;;;;;-145.50;100.00;65435.88;4925468;29;20136;-68
2022/05/21 03:35:26;;;;;;;19.25;9.82;;;;;;;-145.50;100.00;65435.88;4918527;28;20056;-67
2022/05/21 03:37:52;;;;;;;16.42;9.52;;;;;;;-145.50;100.00;65435.88;4921472;29;20055;-68
2022/05/21 03:40:23;;;;;;;22.35;10.23;;;;;;;-145.50;100.00;65435.88;4916239;28;20824;-68
2022/05/21 03:42:49;;;;;;;22.67;11.15;;;;;;;-145.50;100.00;65435.88;4924757;29;20170;-67
2022/05/21 03:45:16;;;;;;;19.95;10.05;;;;;;;-145.50;100.00;65435.88;4921983;28;20480;-67
2022/05/21 03:47:43;;;;;;;16.23;10.68;;;;;;;-145.50;100.00;65435.88;4936309;29;21045;-66
2022/05/21 03:50:14;;;;;;;17.38;9.93;;;;;;;-145.50;100.00;65435.88;4932230;29;20897;-67
2022/05/21 03:52:40;;;;;;;25.75;10.40;;;;;;;-145.50;100.00;65435.88;4915675;28;20047;-67
2022/05/21 03:55:08;;;;;;;17.63;11.35;;;;;;;-145.50;100.00;65435.88;4930297;29;20059;-65
2022/05/21 03:57:35;;;;;;;25.00;11.20;;;;;;;-145.50;100.00;65435.88;4919013;28;20062;-67
2022/05/21 04:00:06;;;;;;;22.83;10.43;;;;;;;-145.50;100.00;65435.88;4925925;29;20055;-68
2022/05/21 04:02:32;;;;;;;20.13;11.02;;;;;;;-145.50;100.00;65435.88;4919379;28;20401;-68
2022/05/21 04:04:59;;;;;;;20.58;10.48;;;;;;;-145.50;100.00;65435.88;4919954;29;20058;-68
2022/05/21 04:07:26;;;;;;;20.58;10.88;;;;;;;-145.50;100.00;65435.88;4920547;29;20760;-68
2022/05/21 04:09:52;;;;;;;18.73;9.95;;;;;;;-145.50;100.00;65435.88;4929682;28;20052;-67
2022/05/21 04:12:19;;;;;;;21.75;10.55;;;;;;;-145.50;100.00;65435.88;4913325;29;20723;-68
2022/05/21 04:14:45;;;;;;;21.88;10.43;;;;;;;-145.50;100.00;65435.88;4919008;29;20061;-68
2022/05/21 04:17:13;;;;;;;21.15;11.77;;;;;;;-145.50;100.00;65435.88;4925825;29;20051;-66
2022/05/21 04:19:41;;;;;;;20.77;11.60;;;;;;;-145.50;100.00;65435.88;4918797;28;20059;-67
2022/05/21 04:22:09;;;;;;;22.20;10.50;;;;;;;-145.50;100.00;65435.88;4924072;29;20535;-68
2022/05/21 04:24:36;;;;;;;22.42;9.85;;;;;;;-145.50;100.00;65435.88;4924240;29;20138;-67
2022/05/21 04:27:02;;;;;;;24.45;11.75;;;;;;;-145.50;100.00;65435.88;4917969;29;20138;-68
2022/05/21 04:29:29;;;;;;;23.55;10.75;;;;;;;-145.50;100.00;65435.88;4920290;29;20060;-66
2022/05/21 04:31:55;;;;;;;25.20;10.15;;;;;;;-145.50;100.00;65435.88;4914320;28;20055;-65
2022/05/21 04:34:22;;;;;;;22.98;10.45;;;;;;;-145.50;100.00;65435.88;4924203;29;20135;-65
2022/05/21 04:36:48;;;;;;;26.38;10.45;;;;;;;-145.50;100.00;65435.88;4919104;28;20568;-67
2022/05/21 04:39:15;;;;;;;23.48;9.27;;;;;;;-145.50;100.00;65435.88;4926014;29;20591;-67
2022/05/21 04:41:41;;;;;;;24.10;10.73;;;;;;;-145.50;100.00;65435.88;4936783;29;20165;-67
2022/05/21 04:44:08;;;;;;;20.70;9.48;;;;;;;-145.50;100.00;65435.88;4918744;28;20062;-67
2022/05/21 04:46:35;;;;;;;24.65;11.05;;;;;;;-145.50;100.00;65435.88;4919095;29;20712;-68
2022/05/21 04:49:03;;;;;;;21.33;10.15;;;;;;;-145.50;100.00;65435.88;4920511;28;20138;-68
2022/05/21 04:51:34;;;;;;;22.33;10.50;;;;;;;-145.50;100.00;65435.88;4924606;29;20075;-68
2022/05/21 04:54:00;;;;;;;19.17;9.35;;;;;;;-145.50;100.00;65435.88;4930917;28;20397;-67
2022/05/21 04:56:27;;;;;;;17.73;8.77;;;;;;;-145.50;100.00;65435.88;4921542;29;20086;-67
2022/05/21 04:59:10;;;;;;;22.13;10.75;;;;;;;-145.50;100.00;65435.88;4920685;29;20497;-68
2022/05/21 05:01:38;;;;;;;23.30;9.95;;;;;;;-145.50;100.00;65435.88;4918491;28;20146;-68
2022/05/21 05:04:06;;;;;;;24.17;9.98;;;;;;;-145.50;100.00;65435.88;4923899;29;20055;-67
2022/05/21 05:06:33;;;;;;;16.52;8.10;;;;;;;-145.50;100.00;65435.88;4918692;28;20131;-67
2022/05/21 05:09:00;;;;;;;14.88;8.30;;;;;;;-145.50;100.00;65435.88;4924300;29;20562;-68
2022/05/21 05:11:27;;;;;;;19.38;8.18;;;;;;;-145.50;100.00;65435.88;4913867;28;20162;-67
2022/05/21 05:13:54;;;;;;;23.25;9.27;;;;;;;-145.50;100.00;65435.88;4920094;29;20138;-68
2022/05/21 05:16:21;;;;;;;24.98;8.52;;;;;;;-145.50;100.00;65435.88;4924705;29;20568;-68
2022/05/21 05:18:48;;;;;;;15.95;8.05;;;;;;;-145.50;100.00;65435.88;4917677;28;20055;-68
2022/05/21 05:21:14;;;;;;;27.92;8.88;;;;;;;-145.50;100.00;65435.88;4923687;29;20056;-67
2022/05/21 05:23:41;;;;;;;25.42;7.72;;;;;;;-145.50;100.00;65435.88;4917248;28;20604;-68
2022/05/21 05:26:07;;;;;;;23.58;8.48;;;;;;;-145.50;100.00;65435.88;4915950;29;20059;-67
2022/05/21 05:28:34;;;;;;;20.70;7.53;;;;;;;-145.50;100.00;65435.88;4917410;28;20055;-66
2022/05/21 05:31:00;;;;;;;18.88;7.72;;;;;;;-145.50;100.00;65435.88;4923048;29;20803;-68
2022/05/21 05:33:29;;;;;;;17.10;6.93;;;;;;;-145.50;100.00;65435.88;4922862;29;20511;-67
2022/05/21 05:35:56;;;;;;;21.63;7.10;;;;;;;-145.50;100.00;65435.88;4917624;28;20062;-67
2022/05/21 05:38:23;;;;;;;19.33;7.18;;;;;;;-145.50;100.00;65435.88;4918665;29;20060;-68
2022/05/21 05:40:52;;;;;;;22.65;8.13;;;;;;;-145.50;100.00;65435.88;4910334;28;20611;-66
2022/05/21 05:43:19;;;;;;;;;;;;;;;-145.50;100.00;65435.88;4924401;29;20470;-65
2022/05/21 05:45:49;;;;;;;19.60;7.18;;;;;;;-145.50;100.00;65435.88;4917557;29;20441;-68
2022/05/21 05:48:16;;;;;;;17.88;6.88;;;;;;;-145.50;100.00;65435.88;4942494;29;20055;-66
2022/05/21 05:50:42;;;;;;;15.85;6.75;;;;;;;-145.50;100.00;65435.88;4943367;29;20150;-67
2022/05/21 05:53:09;;;;;;;19.63;6.05;;;;;;;-145.50;100.00;65435.88;4919946;28;20480;-67
2022/05/21 05:55:36;;;;;;;22.55;6.53;;;;;;;-145.50;100.00;65435.88;4925595;29;20683;-69
2022/05/21 05:59:48;;;;;;;18.83;5.78;;;;;;;-145.50;100.00;65435.88;4918530;28;20164;-68
2022/05/21 06:00:50;;;;;;;18.95;5.93;;;;;;;-145.50;100.00;65435.88;4923093;29;20752;-68
2022/05/21 06:03:16;;;;;;;20.83;6.65;;;;;;;-145.50;100.00;65435.88;4917819;28;20075;-67
2022/05/21 06:05:43;;;;;;;17.77;5.88;;;;;;;-145.50;100.00;65435.88;4929992;29;20082;-68
2022/05/21 06:08:09;;;;;;;16.98;5.18;;;;;;;-145.50;100.00;65435.88;4933347;28;20149;-67
2022/05/21 06:10:39;;;;;;;16.75;5.35;;;;;;;-145.50;100.00;65435.88;4940076;28;20605;-67
2022/05/21 06:13:06;;;;;;;20.77;5.03;;;;;;;-145.50;100.00;65435.88;4939811;29;20424;-67
2022/05/21 06:15:33;;;;;;;17.98;5.03;;;;;;;-145.50;100.00;65435.88;4917896;28;20048;-68
2022/05/21 06:18:05;;;;;;;15.48;5.15;;;;;;;-145.50;100.00;65435.88;4923268;29;20598;-67
2022/05/21 06:20:32;;;;;;;20.15;5.30;;;;;;;-145.50;100.00;65435.88;4909945;28;20111;-68
2022/05/21 06:22:59;;;;;;;18.70;5.15;;;;;;;-145.50;100.00;65435.88;4919408;29;20460;-68
2022/05/21 06:25:26;;;;;;;14.60;4.53;;;;;;;-145.50;100.00;65435.88;4918785;28;20070;-67
2022/05/21 06:27:53;;;;;;;17.80;4.18;;;;;;;-145.50;100.00;65435.88;4922460;29;20440;-66
2022/05/21 06:30:22;;;;;;;19.87;5.40;;;;;;;-145.50;100.00;65435.88;4925115;29;20564;-67
2022/05/21 06:32:48;;;;;;;;;;;;;;;-145.50;100.00;65435.88;4918875;28;20554;-68
2022/05/21 06:35:17;;;;;;;16.65;4.25;;;;;;;-145.50;100.00;65435.88;4919348;29;19927;-67
2022/05/21 06:37:44;;;;;;;14.75;3.60;;;;;;;-145.50;100.00;65435.88;4913205;28;20057;-67
2022/05/21 06:40:12;;;;;;;18.35;3.67;;;;;;;-145.50;100.00;65435.88;4922339;29;20139;-67
2022/05/21 06:42:40;;;;;;;17.35;3.85;;;;;;;-145.50;100.00;65435.88;4918036;28;20051;-67
2022/05/21 06:45:08;;;;;;;14.87;3.83;;;;;;;-145.50;100.00;65435.88;4922285;29;20496;-68
2022/05/21 06:47:35;;;;;;;14.20;3.97;;;;;;;-145.50;100.00;65435.88;4937387;29;20384;-68
2022/05/21 06:50:03;;;;;;;16.95;3.45;;;;;;;-145.50;100.00;65435.88;4935566;28;20154;-68
2022/05/21 06:52:30;;;;;;;;;;;;;;;-145.50;100.00;65435.88;4947614;29;20057;-67
2022/05/21 06:54:57;;;;;;;14.53;3.60;;;;;;;-145.50;100.00;65435.88;4921728;28;19989;-68
2022/05/21 06:57:28;;;;;;;17.85;4.13;;;;;;;-145.50;100.00;65435.88;4928237;29;20055;-66
2022/05/21 06:59:56;;;;;;;14.73;3.50;;;;;;;-145.50;100.00;65435.88;4921074;28;20409;-68
2022/05/21 07:02:24;;;;;;;16.20;4.03;;;;;;;-145.50;100.00;65435.88;4919519;29;20170;-68
2022/05/21 07:07:43;;;;;;;19.02;3.35;;;;;;;-145.50;100.00;65435.88;4918732;29;20051;-68
2022/05/21 07:10:17;;;;;;;14.65;3.35;;;;;;;-145.50;100.00;65435.88;4909431;29;20134;-67
2022/05/21 07:12:43;;;;;;;22.42;3.50;;;;;;;-145.50;100.00;65435.88;4919940;28;20139;-68
2022/05/21 07:15:10;;;;;;;11.23;2.83;;;;;;;-145.50;100.00;65435.88;4923386;29;20509;-67
2022/05/21 07:17:36;;;;;;;13.07;3.42;;;;;;;-145.50;100.00;65435.88;4914121;28;20150;-65
2022/05/21 07:20:10;;;;;;;18.25;3.50;;;;;;;-145.50;100.00;65435.88;4926290;29;20142;-68
2022/05/21 07:22:42;;;;;;;16.75;3.08;;;;;;;-145.50;100.00;65435.88;4921361;28;20057;-68
2022/05/21 07:25:10;;;;;;;15.65;3.10;;;;;;;-145.50;100.00;65435.88;4926650;29;20846;-69
2022/05/21 07:27:36;;;;;;;16.75;3.42;;;;;;;-145.50;100.00;65435.88;4925781;29;20138;-68
2022/05/21 07:30:03;;;;;;;11.25;3.22;;;;;;;-145.50;100.00;65435.88;4914489;28;20455;-71
2022/05/21 07:32:30;;;;;;;14.98;2.92;;;;;;;-145.50;100.00;65435.88;4925444;29;20063;-69
2022/05/21 07:34:59;;;;;;;18.10;3.33;;;;;;;-145.50;100.00;65435.88;4922733;28;20051;-68
2022/05/21 07:37:26;;;;;;;16.02;3.38;;;;;;;-145.50;100.00;65435.88;4927595;29;20154;-69
2022/05/21 07:39:53;;;;;;;12.85;2.97;;;;;;;-145.50;100.00;65435.88;4925456;29;20465;-68
2022/05/21 07:42:19;;;;;;;10.73;2.55;;;;;;;-145.50;100.00;65435.88;4917943;29;20625;-68
2022/05/21 07:44:46;;;;;;;12.30;2.80;;;;;;;-145.50;100.00;65435.88;4921027;29;20766;-68
2022/05/21 07:47:13;;;;;;;14.55;3.03;;;;;;;-145.50;100.00;65435.88;4924609;28;20187;-66
2022/05/21 07:49:39;;;;;;;14.07;2.67;;;;;;;-145.50;100.00;65435.88;4942072;29;20142;-68
2022/05/21 07:52:06;;;;;;;11.05;2.67;;;;;;;-145.50;100.00;65435.88;4940494;28;20055;-67
2022/05/21 07:54:34;;;;;;;12.77;3.25;;;;;;;-145.50;100.00;65435.88;4929693;29;20146;-68
2022/05/21 07:57:01;;;;;;;12.00;2.85;;;;;;;-145.50;100.00;65435.88;4921808;29;20469;-68
2022/05/21 07:59:27;;;;;;;15.57;3.42;;;;;;;-145.50;100.00;65435.88;4915803;28;20150;-67
2022/05/21 08:01:55;;;;;;;15.05;3.13;;;;;;;-145.50;100.00;65435.88;4925972;29;20151;-68
2022/05/21 08:04:21;;;;;;;13.55;2.80;;;;;;;-145.50;100.00;65435.88;4920104;29;20755;-67
2022/05/21 08:06:47;;;;;;;14.85;3.20;;;;;;;-145.50;100.00;65435.88;4931089;29;20673;-66
2022/05/21 08:09:19;;;;;;;11.40;2.85;;;;;;;-145.50;100.00;65435.88;4918165;28;20055;-66
2022/05/21 08:11:46;;;;;;;17.83;3.58;;;;;;;-145.50;100.00;65435.88;4919382;29;20051;-67
2022/05/21 08:14:12;;;;;;;13.95;2.88;;;;;;;-145.50;100.00;65435.88;4922160;28;20106;-67
2022/05/21 08:16:39;;;;;;;13.82;3.22;;;;;;;-145.50;100.00;65435.88;4925013;29;20576;-67
2022/05/21 08:19:05;;;;;;;13.20;3.38;;;;;;;-145.50;100.00;65435.88;4926284;29;20059;-68
2022/05/21 08:21:32;;;;;;;11.30;2.47;;;;;;;-145.50;100.00;65435.88;4919587;28;20118;-67
2022/05/21 08:27:00;;;;;;;11.68;2.40;;;;;;;-145.50;100.00;65435.88;4914421;28;20087;-68
2022/05/21 08:29:32;;;;;;;13.57;2.95;;;;;;;-145.50;100.00;65435.88;4925626;29;20126;-69
2022/05/21 08:32:00;;;;;;;13.40;3.28;;;;;;;-145.50;100.00;65435.88;4919325;28;20082;-68
2022/05/21 08:34:28;;;;;;;17.30;3.30;;;;;;;-145.50;100.00;65435.88;4925619;29;20062;-67
2022/05/21 08:36:55;;;;;;;9.43;2.15;;;;;;;-145.50;100.00;65435.88;4908055;29;20138;-67
2022/05/21 08:39:23;;;;;;;10.80;2.92;;;;;;;-145.50;100.00;65435.88;4913679;28;20146;-67
2022/05/21 08:41:57;;;;;;;11.65;2.75;;;;;;;-145.50;100.00;65435.88;4921322;29;20154;-68
2022/05/21 08:44:32;;;;;;;9.20;2.70;;;;;;;-145.50;100.00;65435.88;4918043;28;20051;-67
2022/05/21 08:47:13;;;;;;;12.93;2.22;;;;;;;-145.50;100.00;65435.88;4933848;29;20134;-68
2022/05/21 08:50:02;;;;;;;13.25;2.22;;;;;;;-145.50;100.00;65435.88;4938629;28;20055;-68
2022/05/21 08:52:32;;;;;;;;;;;;;;;-145.50;100.00;65435.88;4920619;29;20166;-68
2022/05/21 08:55:03;;;;;;;11.63;2.35;;;;;;;-145.50;100.00;65435.88;4912851;28;20303;-68
2022/05/21 08:57:42;;;;;;;9.00;2.35;;;;;;;-145.50;100.00;65435.88;4924880;29;20848;-68
2022/05/21 09:00:20;;;;;;;12.15;2.90;;;;;;;-145.50;100.00;65435.88;4919599;28;20453;-69
2022/05/21 09:02:47;;;;;;;11.25;2.38;;;;;;;-145.50;100.00;65435.88;4933570;29;20161;-69
2022/05/21 09:05:16;;;;;;;13.23;2.70;;;;;;;-145.50;100.00;65435.88;4935174;29;20398;-69
2022/05/21 09:08:02;;;;;;;12.70;3.10;;;;;;;-145.50;100.00;65435.88;4930942;28;20106;-67
2022/05/21 09:10:43;;;;;;;12.98;2.65;;;;;;;-145.50;100.00;65435.88;4943811;28;20157;-69
2022/05/21 09:13:28;;;;;;;14.05;2.30;;;;;;;-145.50;100.00;65435.88;4938272;28;20160;-68
2022/05/21 09:18:40;;;;;;;14.25;3.20;;;;;;;-145.50;100.00;65435.88;4936998;28;20086;-67
2022/05/21 09:21:16;;;;;;;11.68;2.95;;;;;;;-145.50;100.00;65435.88;4935790;28;20078;-68
2022/05/21 09:23:57;;;;;;;12.35;2.58;;;;;;;-145.50;100.00;65435.88;4937039;28;20093;-68
2022/05/21 09:26:27;;;;;;;10.23;2.83;;;;;;;-145.50;100.00;65435.88;4925739;29;20131;-69
2022/05/21 09:29:14;;;;;;;9.63;2.75;;;;;;;-145.50;100.00;65435.88;4937540;28;20141;-69
2022/05/21 09:31:41;;;;;;;10.10;2.67;;;;;;;-145.50;100.00;65435.88;4943303;29;20160;-69
2022/05/21 09:34:35;;;;;;;10.23;2.33;;;;;;;-145.50;100.00;65435.88;4936039;28;21061;-69
2022/05/21 09:37:02;;;;;;;11.75;2.35;;;;;;;-145.50;100.00;65435.88;4930270;28;20138;-68
2022/05/21 09:39:36;;;;;;;10.25;2.85;;;;;;;-145.50;100.00;65435.88;4922755;29;20055;-67
2022/05/21 09:45:21;;;;;;;11.77;2.75;;;;;;;-145.50;100.00;65435.88;4916789;28;20068;-68
2022/05/21 09:45:22;;;;;;;11.23;3.08;;;;;;;-145.50;100.00;65435.88;4923444;29;20055;-68
2022/05/21 09:47:49;;;;;;;11.15;2.80;;;;;;;-145.50;100.00;65435.88;4930465;28;20102;-67
2022/05/21 09:50:23;;;;;;;12.40;3.17;;;;;;;-145.50;100.00;65435.88;4939529;29;20158;-68
2022/05/21 09:52:50;;;;;;;11.68;3.20;;;;;;;-145.50;100.00;65435.88;4918148;28;20574;-67
2022/05/21 09:55:27;;;;;;;10.20;2.70;;;;;;;-145.50;100.00;65435.88;4923985;29;20091;-68
2022/05/21 09:58:08;;;;;;;11.27;3.65;;;;;;;-145.50;100.00;65435.88;4919083;28;20058;-68
2022/05/21 10:00:37;;;;;;;12.98;3.30;;;;;;;-145.50;100.00;65435.88;4914235;29;20066;-68
2022/05/21 10:03:10;;;;;;;12.38;3.42;;;;;;;-145.50;100.00;65435.88;4915578;28;20059;-68
2022/05/21 10:05:47;;;;;;;15.68;3.72;;;;;;;-145.50;100.00;65435.88;4925773;29;20079;-67
2022/05/21 10:11:25;;;;;;;11.07;3.10;;;;;;;-145.50;100.00;65435.88;4932638;29;20522;-68
2022/05/21 10:13:59;;;;;;;9.80;3.22;;;;;;;-145.50;100.00;65435.88;4921288;28;20054;-67
2022/05/21 10:16:44;;;;;;;7.15;2.60;;;;;;;-145.50;100.00;65435.88;4913543;28;20058;-68
2022/05/21 10:19:16;;;;;;;12.90;3.45;;;;;;;-145.50;100.00;65435.88;4924326;29;20058;-68
2022/05/21 10:21:58;;;;;;;10.45;4.10;;;;;;;-145.50;100.00;65435.88;4919646;28;20142;-67
2022/05/21 10:24:33;;;;;;;13.52;3.50;;;;;;;-145.50;100.00;65435.88;4916931;29;20054;-68
2022/05/21 10:27:12;;;;;;;13.27;3.63;;;;;;;-145.50;100.00;65435.88;4924931;28;20059;-68
2022/05/21 10:30:06;;;;;;;12.85;3.60;;;;;;;-145.50;100.00;65435.88;4920258;29;20143;-67
2022/05/21 10:32:38;;;;;;;11.48;3.45;;;;;;;-145.50;100.00;65435.88;4928112;28;20090;-68
2022/05/21 10:35:49;;;;;;;13.88;3.00;;;;;;;-145.50;100.00;65435.88;4916043;29;20095;-67
2022/05/21 10:38:32;;;;;;;12.77;3.10;;;;;;;-145.50;100.00;65435.88;4912378;28;20139;-69
2022/05/21 10:41:29;;;;;;;12.43;3.10;;;;;;;-145.50;100.00;65435.88;4925681;29;20700;-68
2022/05/21 10:44:10;;;;;;;9.35;2.83;;;;;;;-145.50;100.00;65435.88;4926713;28;20103;-67
2022/05/21 10:46:53;;;;;;;15.15;3.60;;;;;;;-145.50;100.00;65435.88;4933251;29;20886;-68
2022/05/21 10:49:38;;;;;;;11.88;3.30;;;;;;;-145.50;100.00;65435.88;4934223;28;20435;-69
2022/05/21 10:52:41;;;;;;;8.95;3.20;;;;;;;-145.50;100.00;65435.88;4934644;29;20056;-68
2022/05/21 10:55:26;;;;;;;10.65;2.92;;;;;;;-145.50;100.00;65435.88;4914980;29;20597;-68
2022/05/21 10:58:11;;;;;;;11.98;3.35;;;;;;;-145.50;100.00;65435.88;4907419;29;20403;-68
2022/05/21 11:01:14;;;;;;;12.77;3.58;;;;;;;-145.50;100.00;65435.88;4910115;28;20111;-68
2022/05/21 11:03:53;;;;;;;13.20;2.92;;;;;;;-145.50;100.00;65435.88;4927067;29;20170;-68
2022/05/21 11:06:40;;;;;;;9.43;2.80;;;;;;;-145.50;100.00;65435.88;4920978;28;20052;-67
2022/05/21 11:09:07;;;;;;;8.80;2.53;;;;;;;-145.50;100.00;65435.88;4926553;29;20059;-67
2022/05/21 11:11:46;;;;;;;9.10;2.70;;;;;;;-145.50;100.00;65435.88;4914480;28;20224;-68
2022/05/21 11:14:27;;;;;;;10.98;3.25;;;;;;;-145.50;100.00;65435.88;4925443;29;20051;-68
2022/05/21 11:17:02;;;;;;;9.77;3.40;;;;;;;-145.50;100.00;65435.88;4922518;28;20126;-68
2022/05/21 11:19:37;;;;;;;12.68;3.60;;;;;;;-145.50;100.00;65435.88;4926481;29;20150;-70
2022/05/21 11:22:14;;;;;;;9.32;2.95;;;;;;;-145.50;100.00;65435.88;4926664;29;20146;-67
2022/05/21 11:24:53;;;;;;;10.68;3.03;;;;;;;-145.50;100.00;65435.88;4915144;28;20146;-68
2022/05/21 11:27:34;;;;;;;12.00;3.33;;;;;;;-145.50;100.00;65435.88;4921514;29;20079;-68
2022/05/21 11:30:06;;;;;;;8.57;2.97;;;;;;;-145.50;100.00;65435.88;4921010;28;20512;-68
2022/05/21 11:38:26;;;;;;;11.48;3.90;;;;;;;-145.50;100.00;65435.88;4930002;29;20056;-68
2022/05/21 11:47:06;;;;;;;15.48;3.85;;;;;;;-145.50;100.00;65435.88;4929008;28;20102;-68